T/t Zenji — ZCXH2 — position and weather

sailwx.info

Track history (hours):
 
Tides and Currents Weather Stations Pressure Air Temp Water Temp Dewpoint Dewpoint Depression Visibility Wind Speed Wind Dir Waves Ship Positions

T/t Zenji

Last reported at 2017-Feb-19 14:33 UTC. Time now 2017-Feb-25 20:37 UTC.
Position N 18°18' W 064°53'.

Length 13 m.

Type: Pleasure craft. MMSI: 235007190.

Date/timePositionNaut miles runAvg speedWind from/ knotsBaromVisibWave heightAir tempDewpointWater temp
2017-Feb-19 14:33N 18°18' W 064°53'1510.3
2017-Feb-19 13:08N 18°21' W 064°38'611.2
2017-Feb-19 12:33N 18°24' W 064°32'6 0.5
2017-Feb-19 01:23N 18°27' W 064°27'0 0.0
2017-Feb-18 23:18N 18°27' W 064°27'0 0.0
2017-Feb-18 22:30N 18°27' W 064°27'0 0.0
2017-Feb-18 20:30N 18°27' W 064°27'0 0.1
2017-Feb-18 19:31N 18°27' W 064°27'1 0.3
2017-Feb-18 14:21N 18°28' W 064°27'2 2.4
2017-Feb-18 13:33N 18°26' W 064°27'0 0.0
2017-Feb-18 12:33N 18°26' W 064°27'0 0.0
2017-Feb-18 11:33N 18°26' W 064°27'0 0.0
2017-Feb-18 10:33N 18°26' W 064°27'0 0.0
2017-Feb-18 09:33N 18°26' W 064°27'0 0.0
2017-Feb-18 08:33N 18°26' W 064°27'0 0.0
2017-Feb-18 07:27N 18°26' W 064°27'0 0.0
2017-Feb-18 06:27N 18°26' W 064°27'0 0.0
2017-Feb-18 05:27N 18°26' W 064°27'0 0.0
2017-Feb-18 04:33N 18°26' W 064°27'0 0.0
2017-Feb-18 03:27N 18°26' W 064°27'0 0.0
2017-Feb-18 02:30N 18°26' W 064°27'0 0.0
2017-Feb-18 01:33N 18°26' W 064°27'0 0.0
2017-Feb-18 00:33N 18°26' W 064°27'0 0.0
2017-Feb-17 23:33N 18°26' W 064°27'0 0.0
2017-Feb-17 22:33N 18°26' W 064°27'0 0.0
2017-Feb-17 21:33N 18°26' W 064°27'0 0.0
2017-Feb-17 20:33N 18°26' W 064°27'0 0.0
2017-Feb-17 19:33N 18°26' W 064°27'0 0.0
2017-Feb-17 18:33N 18°26' W 064°27'0 0.0
2017-Feb-17 17:33N 18°26' W 064°27'0 0.0
2017-Feb-17 16:33N 18°26' W 064°27'0 0.0
2017-Feb-17 15:33N 18°26' W 064°27'0 0.0
2017-Feb-17 14:27N 18°26' W 064°27'0 0.0
2017-Feb-17 13:27N 18°26' W 064°27'2 1.5
2017-Feb-17 12:27N 18°28' W 064°27'3 0.1
2017-Feb-15 23:33N 18°31' W 064°25'7 2.9
2017-Feb-15 21:17N 18°30' W 064°32'710.3
2017-Feb-15 20:33N 18°28' W 064°39'6 5.5
2017-Feb-15 19:31N 18°26' W 064°45'0 0.0
2017-Feb-15 18:22N 18°26' W 064°45'0 0.0
2017-Feb-15 17:29N 18°26' W 064°45'10 9.2
2017-Feb-15 16:24N 18°28' W 064°35'0 0.0
2017-Feb-15 15:24N 18°28' W 064°35'8 4.1
2017-Feb-15 13:32N 18°26' W 064°27'0 0.0
2017-Feb-15 12:32N 18°26' W 064°27'0 0.0
2017-Feb-15 11:32N 18°26' W 064°27'0 0.0
2017-Feb-15 10:32N 18°26' W 064°27'0 0.0
2017-Feb-15 09:32N 18°26' W 064°27'0 0.0
2017-Feb-15 08:26N 18°26' W 064°27'0 0.0
2017-Feb-15 07:32N 18°26' W 064°27'0 0.0
2017-Feb-15 05:26N 18°26' W 064°27'0 0.0
2017-Feb-15 04:32N 18°26' W 064°27'0 0.0
2017-Feb-15 03:32N 18°26' W 064°27'0 0.0
2017-Feb-15 02:32N 18°26' W 064°27'0 0.0
2017-Feb-15 01:32N 18°26' W 064°27'0 0.0
2017-Feb-15 00:32N 18°26' W 064°27'0 0.0
2017-Feb-14 23:20N 18°26' W 064°27'0 0.0
2017-Feb-14 22:32N 18°26' W 064°27'0 0.0
2017-Feb-14 21:32N 18°26' W 064°27'0 0.0
2017-Feb-14 20:26N 18°26' W 064°27'0 0.0
2017-Feb-14 19:32N 18°26' W 064°27'0 0.0
2017-Feb-14 17:32N 18°26' W 064°27'0 0.0
2017-Feb-14 16:26N 18°26' W 064°27'0 0.0
2017-Feb-14 15:32N 18°26' W 064°27'5 4.9
2017-Feb-14 14:33N 18°31' W 064°25'2 0.0
2017-Feb-12 14:08N 18°31' W 064°23'6 8.6
2017-Feb-12 13:29N 18°27' W 064°27'1 0.6
2017-Feb-12 12:32N 18°26' W 064°27'0 0.0
2017-Feb-12 11:32N 18°26' W 064°27'0 0.0
2017-Feb-12 10:08N 18°26' W 064°27'0 0.0
2017-Feb-12 09:32N 18°26' W 064°27'0 0.0
2017-Feb-12 08:32N 18°26' W 064°27'0 0.0
2017-Feb-12 07:32N 18°26' W 064°27'0 0.0
2017-Feb-12 06:26N 18°26' W 064°27'0 0.0
2017-Feb-12 05:32N 18°26' W 064°27'0 0.0
2017-Feb-12 04:32N 18°26' W 064°27'0 0.0
2017-Feb-12 03:26N 18°26' W 064°27'0 0.0
2017-Feb-12 02:32N 18°26' W 064°27'0 0.0
2017-Feb-12 01:26N 18°26' W 064°27'0 0.0
2017-Feb-12 00:32N 18°26' W 064°27'0 0.0
2017-Feb-11 23:32N 18°26' W 064°27'0 0.0
2017-Feb-11 22:32N 18°26' W 064°27'1 0.7
2017-Feb-11 21:24N 18°27' W 064°27'7 1.4
2017-Feb-11 16:25N 18°32' W 064°21'8 6.4
2017-Feb-11 15:13N 18°27' W 064°27'0 0.4
2017-Feb-11 14:09N 18°27' W 064°27'1 1.0
2017-Feb-11 13:29N 18°26' W 064°27'0 0.0
2017-Feb-11 12:29N 18°26' W 064°27'0 0.0
2017-Feb-11 11:23N 18°26' W 064°27'0 0.0
2017-Feb-11 10:29N 18°26' W 064°27'0 0.0
2017-Feb-11 09:29N 18°26' W 064°27'0 0.0
2017-Feb-11 08:29N 18°26' W 064°27'0 0.0
2017-Feb-11 07:29N 18°26' W 064°27'0 0.0
2017-Feb-11 06:29N 18°26' W 064°27'0 0.0
2017-Feb-11 05:29N 18°26' W 064°27'0 0.0
2017-Feb-11 04:29N 18°26' W 064°27'0 0.0
2017-Feb-11 03:29N 18°26' W 064°27'0 0.0
2017-Feb-11 02:23N 18°26' W 064°27'0 0.0
2017-Feb-11 01:16N 18°26' W 064°27'0 0.0
2017-Feb-11 00:11N 18°26' W 064°27'0 0.0
2017-Feb-10 23:29N 18°26' W 064°27'0 0.0
2017-Feb-10 22:29N 18°26' W 064°27'0 0.0
2017-Feb-10 21:29N 18°26' W 064°27'0 0.0
2017-Feb-10 20:17N 18°26' W 064°27'0 0.0
2017-Feb-10 19:10N 18°26' W 064°27'0 0.0
2017-Feb-10 18:22N 18°26' W 064°27'0 0.0
2017-Feb-10 17:23N 18°26' W 064°27'0 0.0
2017-Feb-10 16:23N 18°26' W 064°27'0 0.0
2017-Feb-10 15:29N 18°26' W 064°27'0 0.0
2017-Feb-10 14:23N 18°26' W 064°27'0 0.0
2017-Feb-10 13:28N 18°26' W 064°27'0 0.0
2017-Feb-10 12:29N 18°26' W 064°27'0 0.0
2017-Feb-10 11:28N 18°26' W 064°27'0 0.0
2017-Feb-10 10:28N 18°26' W 064°27'0 0.0
2017-Feb-10 09:28N 18°26' W 064°27'0 0.0
2017-Feb-10 08:28N 18°26' W 064°27'0 0.0
2017-Feb-10 07:28N 18°26' W 064°27'0 0.0
2017-Feb-10 06:28N 18°26' W 064°27'0 0.0
2017-Feb-10 05:22N 18°26' W 064°27'0 0.0
2017-Feb-10 04:28N 18°26' W 064°27'0 0.0
2017-Feb-10 03:22N 18°26' W 064°27'0 0.0
2017-Feb-10 02:22N 18°26' W 064°27'0 0.0
2017-Feb-10 01:28N 18°26' W 064°27'0 0.0
2017-Feb-10 00:28N 18°26' W 064°27'1 0.8
2017-Feb-09 23:33N 18°27' W 064°27'6 5.7
2017-Feb-09 22:32N 18°30' W 064°32'1010.6
2017-Feb-09 21:33N 18°26' W 064°42'3 2.4
2017-Feb-09 20:21N 18°26' W 064°45'0 0.0
2017-Feb-09 19:33N 18°26' W 064°45'0 0.0
2017-Feb-09 18:34N 18°26' W 064°45'0 0.0
2017-Feb-09 17:34N 18°26' W 064°45'2 1.9
2017-Feb-09 16:34N 18°26' W 064°43'  
Track history (hours):
 
Tides and Currents Weather Stations Pressure Air Temp Water Temp Dewpoint Dewpoint Depression Visibility Wind Speed Wind Dir Waves Ship Positions

T/t Zenji

Last reported at 2017-Feb-19 14:33 UTC. Time now 2017-Feb-25 20:37 UTC.
Position N 18°18' W 064°53'.

Length 13 m.

Type: Pleasure craft. MMSI: 235007190.

Date/timePositionNaut miles runAvg speedWind from/ knotsBaromVisibWave heightAir tempDewpointWater temp
2017-Feb-19 14:33N 18°18' W 064°53'1510.3
2017-Feb-19 13:08N 18°21' W 064°38'611.2
2017-Feb-19 12:33N 18°24' W 064°32'6 0.5
2017-Feb-19 01:23N 18°27' W 064°27'0 0.0
2017-Feb-18 23:18N 18°27' W 064°27'0 0.0
2017-Feb-18 22:30N 18°27' W 064°27'0 0.0
2017-Feb-18 20:30N 18°27' W 064°27'0 0.1
2017-Feb-18 19:31N 18°27' W 064°27'1 0.3
2017-Feb-18 14:21N 18°28' W 064°27'2 2.4
2017-Feb-18 13:33N 18°26' W 064°27'0 0.0
2017-Feb-18 12:33N 18°26' W 064°27'0 0.0
2017-Feb-18 11:33N 18°26' W 064°27'0 0.0
2017-Feb-18 10:33N 18°26' W 064°27'0 0.0
2017-Feb-18 09:33N 18°26' W 064°27'0 0.0
2017-Feb-18 08:33N 18°26' W 064°27'0 0.0
2017-Feb-18 07:27N 18°26' W 064°27'0 0.0
2017-Feb-18 06:27N 18°26' W 064°27'0 0.0
2017-Feb-18 05:27N 18°26' W 064°27'0 0.0
2017-Feb-18 04:33N 18°26' W 064°27'0 0.0
2017-Feb-18 03:27N 18°26' W 064°27'0 0.0
2017-Feb-18 02:30N 18°26' W 064°27'0 0.0
2017-Feb-18 01:33N 18°26' W 064°27'0 0.0
2017-Feb-18 00:33N 18°26' W 064°27'0 0.0
2017-Feb-17 23:33N 18°26' W 064°27'0 0.0
2017-Feb-17 22:33N 18°26' W 064°27'0 0.0
2017-Feb-17 21:33N 18°26' W 064°27'0 0.0
2017-Feb-17 20:33N 18°26' W 064°27'0 0.0
2017-Feb-17 19:33N 18°26' W 064°27'0 0.0
2017-Feb-17 18:33N 18°26' W 064°27'0 0.0
2017-Feb-17 17:33N 18°26' W 064°27'0 0.0
2017-Feb-17 16:33N 18°26' W 064°27'0 0.0
2017-Feb-17 15:33N 18°26' W 064°27'0 0.0
2017-Feb-17 14:27N 18°26' W 064°27'0 0.0
2017-Feb-17 13:27N 18°26' W 064°27'2 1.5
2017-Feb-17 12:27N 18°28' W 064°27'3 0.1
2017-Feb-15 23:33N 18°31' W 064°25'7 2.9
2017-Feb-15 21:17N 18°30' W 064°32'710.3
2017-Feb-15 20:33N 18°28' W 064°39'6 5.5
2017-Feb-15 19:31N 18°26' W 064°45'0 0.0
2017-Feb-15 18:22N 18°26' W 064°45'0 0.0
2017-Feb-15 17:29N 18°26' W 064°45'10 9.2
2017-Feb-15 16:24N 18°28' W 064°35'0 0.0
2017-Feb-15 15:24N 18°28' W 064°35'8 4.1
2017-Feb-15 13:32N 18°26' W 064°27'0 0.0
2017-Feb-15 12:32N 18°26' W 064°27'0 0.0
2017-Feb-15 11:32N 18°26' W 064°27'0 0.0
2017-Feb-15 10:32N 18°26' W 064°27'0 0.0
2017-Feb-15 09:32N 18°26' W 064°27'0 0.0
2017-Feb-15 08:26N 18°26' W 064°27'0 0.0
2017-Feb-15 07:32N 18°26' W 064°27'0 0.0
2017-Feb-15 05:26N 18°26' W 064°27'0 0.0
2017-Feb-15 04:32N 18°26' W 064°27'0 0.0
2017-Feb-15 03:32N 18°26' W 064°27'0 0.0
2017-Feb-15 02:32N 18°26' W 064°27'0 0.0
2017-Feb-15 01:32N 18°26' W 064°27'0 0.0
2017-Feb-15 00:32N 18°26' W 064°27'0 0.0
2017-Feb-14 23:20N 18°26' W 064°27'0 0.0
2017-Feb-14 22:32N 18°26' W 064°27'0 0.0
2017-Feb-14 21:32N 18°26' W 064°27'0 0.0
2017-Feb-14 20:26N 18°26' W 064°27'0 0.0
2017-Feb-14 19:32N 18°26' W 064°27'0 0.0
2017-Feb-14 17:32N 18°26' W 064°27'0 0.0
2017-Feb-14 16:26N 18°26' W 064°27'0 0.0
2017-Feb-14 15:32N 18°26' W 064°27'5 4.9
2017-Feb-14 14:33N 18°31' W 064°25'2 0.0
2017-Feb-12 14:08N 18°31' W 064°23'6 8.6
2017-Feb-12 13:29N 18°27' W 064°27'1 0.6
2017-Feb-12 12:32N 18°26' W 064°27'0 0.0
2017-Feb-12 11:32N 18°26' W 064°27'0 0.0
2017-Feb-12 10:08N 18°26' W 064°27'0 0.0
2017-Feb-12 09:32N 18°26' W 064°27'0 0.0
2017-Feb-12 08:32N 18°26' W 064°27'0 0.0
2017-Feb-12 07:32N 18°26' W 064°27'0 0.0
2017-Feb-12 06:26N 18°26' W 064°27'0 0.0
2017-Feb-12 05:32N 18°26' W 064°27'0 0.0
2017-Feb-12 04:32N 18°26' W 064°27'0 0.0
2017-Feb-12 03:26N 18°26' W 064°27'0 0.0
2017-Feb-12 02:32N 18°26' W 064°27'0 0.0
2017-Feb-12 01:26N 18°26' W 064°27'0 0.0
2017-Feb-12 00:32N 18°26' W 064°27'0 0.0
2017-Feb-11 23:32N 18°26' W 064°27'0 0.0
2017-Feb-11 22:32N 18°26' W 064°27'1 0.7
2017-Feb-11 21:24N 18°27' W 064°27'7 1.4
2017-Feb-11 16:25N 18°32' W 064°21'8 6.4
2017-Feb-11 15:13N 18°27' W 064°27'0 0.4
2017-Feb-11 14:09N 18°27' W 064°27'1 1.0
2017-Feb-11 13:29N 18°26' W 064°27'0 0.0
2017-Feb-11 12:29N 18°26' W 064°27'0 0.0
2017-Feb-11 11:23N 18°26' W 064°27'0 0.0
2017-Feb-11 10:29N 18°26' W 064°27'0 0.0
2017-Feb-11 09:29N 18°26' W 064°27'0 0.0
2017-Feb-11 08:29N 18°26' W 064°27'0 0.0
2017-Feb-11 07:29N 18°26' W 064°27'0 0.0
2017-Feb-11 06:29N 18°26' W 064°27'0 0.0
2017-Feb-11 05:29N 18°26' W 064°27'0 0.0
2017-Feb-11 04:29N 18°26' W 064°27'0 0.0
2017-Feb-11 03:29N 18°26' W 064°27'0 0.0
2017-Feb-11 02:23N 18°26' W 064°27'0 0.0
2017-Feb-11 01:16N 18°26' W 064°27'0 0.0
2017-Feb-11 00:11N 18°26' W 064°27'0 0.0
2017-Feb-10 23:29N 18°26' W 064°27'0 0.0
2017-Feb-10 22:29N 18°26' W 064°27'0 0.0
2017-Feb-10 21:29N 18°26' W 064°27'0 0.0
2017-Feb-10 20:17N 18°26' W 064°27'0 0.0
2017-Feb-10 19:10N 18°26' W 064°27'0 0.0
2017-Feb-10 18:22N 18°26' W 064°27'0 0.0
2017-Feb-10 17:23N 18°26' W 064°27'0 0.0
2017-Feb-10 16:23N 18°26' W 064°27'0 0.0
2017-Feb-10 15:29N 18°26' W 064°27'0 0.0
2017-Feb-10 14:23N 18°26' W 064°27'0 0.0
2017-Feb-10 13:28N 18°26' W 064°27'0 0.0
2017-Feb-10 12:29N 18°26' W 064°27'0 0.0
2017-Feb-10 11:28N 18°26' W 064°27'0 0.0
2017-Feb-10 10:28N 18°26' W 064°27'0 0.0
2017-Feb-10 09:28N 18°26' W 064°27'0 0.0
2017-Feb-10 08:28N 18°26' W 064°27'0 0.0
2017-Feb-10 07:28N 18°26' W 064°27'0 0.0
2017-Feb-10 06:28N 18°26' W 064°27'0 0.0
2017-Feb-10 05:22N 18°26' W 064°27'0 0.0
2017-Feb-10 04:28N 18°26' W 064°27'0 0.0
2017-Feb-10 03:22N 18°26' W 064°27'0 0.0
2017-Feb-10 02:22N 18°26' W 064°27'0 0.0
2017-Feb-10 01:28N 18°26' W 064°27'0 0.0
2017-Feb-10 00:28N 18°26' W 064°27'1 0.8
2017-Feb-09 23:33N 18°27' W 064°27'6 5.7
2017-Feb-09 22:32N 18°30' W 064°32'1010.6
2017-Feb-09 21:33N 18°26' W 064°42'3 2.4
2017-Feb-09 20:21N 18°26' W 064°45'0 0.0
2017-Feb-09 19:33N 18°26' W 064°45'0 0.0
2017-Feb-09 18:34N 18°26' W 064°45'0 0.0
2017-Feb-09 17:34N 18°26' W 064°45'2 1.9
2017-Feb-09 16:34N 18°26' W 064°43'  

Dump ship's entire track history